Time;durP1;ratioP1;P1;durP2;ratioP2;P2;SDS_P1;SDS_P2;PMS_P1;PMS_P2;Temp;Humidity;BMP_temperature;BMP_pressure;BME280_temperature;BME280_humidity;BME280_pressure;Samples;Min_cycle;Max_cycle;Signal;HPM_P1;HPM_P2
2021/11/28 00:00:44;;;;;;;12.30;5.50;;;;;;;0.20;100.00;96743.94;5031466;28;20029;-72
2021/11/28 00:03:09;;;;;;;9.45;5.88;;;;;;;0.07;100.00;96727.84;5031117;28;20060;-74
2021/11/28 00:05:35;;;;;;;14.75;5.72;;;;;;;0.17;100.00;96741.66;5031668;28;20053;-73
2021/11/28 00:08:15;;;;;;;11.68;5.80;;;;;;;0.14;100.00;96736.72;5031268;28;20439;-72
2021/11/28 00:13:08;;;;;;;11.02;5.05;;;;;;;0.28;100.00;96732.34;5031595;28;20067;-74
2021/11/28 00:15:34;;;;;;;9.60;4.88;;;;;;;0.13;100.00;96720.94;5031821;28;20048;-72
2021/11/28 00:17:59;;;;;;;9.30;4.78;;;;;;;0.06;100.00;96702.28;5031609;28;20030;-72
2021/11/28 00:20:25;;;;;;;12.07;5.18;;;;;;;0.11;100.00;96713.19;5034860;28;20476;-72
2021/11/28 00:22:50;;;;;;;9.43;5.20;;;;;;;0.07;100.00;96706.59;5035119;28;20037;-74
2021/11/28 00:25:18;;;;;;;12.02;5.75;;;;;;;0.25;100.00;96737.25;5034970;28;20064;-72
2021/11/28 00:27:45;;;;;;;16.38;6.70;;;;;;;0.18;100.00;96735.34;5033689;28;20026;-73
2021/11/28 00:30:16;;;;;;;19.08;8.00;;;;;;;0.05;100.00;96703.28;5028335;28;20022;-72
2021/11/28 00:32:41;;;;;;;13.50;6.47;;;;;;;0.05;100.00;96708.59;5015211;28;20034;-72
2021/11/28 00:35:07;;;;;;;14.15;6.90;;;;;;;0.13;100.00;96732.44;5017732;28;20064;-75
2021/11/28 00:37:32;;;;;;;11.13;4.97;;;;;;;0.05;100.00;96723.72;5033273;28;20068;-76
2021/11/28 00:39:58;;;;;;;10.25;4.72;;;;;;;0.19;100.00;96738.81;5033376;28;20517;-72
2021/11/28 00:42:23;;;;;;;9.55;4.38;;;;;;;0.02;100.00;96708.16;5034543;28;20040;-72
2021/11/28 00:44:49;;;;;;;8.13;4.10;;;;;;;0.21;100.00;96734.16;5034750;28;20037;-71
2021/11/28 00:47:15;;;;;;;7.97;4.00;;;;;;;0.21;100.00;96737.63;5024675;28;20037;-72
2021/11/28 00:49:50;;;;;;;8.32;4.53;;;;;;;0.22;100.00;96733.13;5034642;28;20025;-72
2021/11/28 00:52:15;;;;;;;12.50;6.40;;;;;;;0.11;100.00;96707.03;5032935;28;20067;-73
2021/11/28 00:54:41;;;;;;;13.77;6.40;;;;;;;0.13;100.00;96721.81;5033232;28;20025;-72
2021/11/28 00:57:08;;;;;;;15.13;6.55;;;;;;;0.13;100.00;96721.81;5014592;28;20030;-73
2021/11/28 00:59:33;;;;;;;11.43;5.60;;;;;;;0.22;100.00;96733.94;5013294;28;20023;-73
2021/11/28 01:01:59;;;;;;;9.57;5.30;;;;;;;0.04;100.00;96709.63;5014985;28;20037;-72
2021/11/28 01:04:24;;;;;;;9.35;4.82;;;;;;;-0.06;100.00;96704.59;5028914;28;20372;-72
2021/11/28 01:06:50;;;;;;;9.70;5.38;;;;;;;0.13;100.00;96747.53;5034924;28;20406;-73
2021/11/28 01:09:15;;;;;;;8.50;4.68;;;;;;;-0.04;100.00;96720.38;5033515;28;20060;-73
2021/11/28 01:11:41;;;;;;;8.90;4.95;;;;;;;-0.03;100.00;96728.19;5034752;28;20112;-73
2021/11/28 01:14:07;;;;;;;7.30;4.80;;;;;;;0.04;100.00;96733.53;5035450;28;20029;-73
2021/11/28 01:16:34;;;;;;;8.07;4.63;;;;;;;0.21;100.00;96752.75;5034229;28;20041;-72
2021/11/28 01:19:00;;;;;;;8.45;4.93;;;;;;;0.05;100.00;96711.25;5035175;28;20159;-72
2021/11/28 01:21:26;;;;;;;7.68;4.65;;;;;;;0.07;100.00;96724.38;5036922;28;20041;-75
2021/11/28 01:23:53;;;;;;;8.77;4.97;;;;;;;0.19;100.00;96752.94;5035382;28;20034;-72
2021/11/28 01:26:18;;;;;;;6.95;4.57;;;;;;;0.15;100.00;96759.63;5034962;28;20391;-72
2021/11/28 01:28:44;;;;;;;11.63;4.95;;;;;;;0.15;100.00;96764.94;5034396;28;20029;-73
2021/11/28 01:31:09;;;;;;;8.43;4.85;;;;;;;0.01;100.00;96741.91;5031546;28;20022;-74
2021/11/28 01:33:35;;;;;;;10.10;4.75;;;;;;;0.20;100.00;96762.56;5032236;28;20021;-72
2021/11/28 01:36:00;;;;;;;12.40;4.82;;;;;;;0.04;100.00;96741.53;5033397;28;20028;-75
2021/11/28 01:38:25;;;;;;;10.10;4.75;;;;;;;-0.09;100.00;96722.78;5033533;28;20022;-73
2021/11/28 01:40:53;;;;;;;8.88;4.32;;;;;;;0.26;100.00;96776.94;5033588;28;20041;-73
2021/11/28 01:43:19;;;;;;;8.63;4.53;;;;;;;0.13;100.00;96751.03;5033591;28;20400;-72
2021/11/28 01:45:47;;;;;;;8.88;4.65;;;;;;;0.30;100.00;96782.72;5033455;28;20104;-73
2021/11/28 01:48:15;;;;;;;9.93;5.32;;;;;;;0.30;100.00;96778.22;5033526;28;20101;-72
2021/11/28 01:50:46;;;;;;;9.07;4.83;;;;;;;0.31;100.00;96789.66;5032987;28;20021;-75
2021/11/28 01:53:21;;;;;;;7.35;4.53;;;;;;;0.30;100.00;96788.84;5030633;28;20273;-73
2021/11/28 01:55:48;;;;;;;8.60;4.30;;;;;;;0.33;100.00;96782.34;5031960;28;20469;-74
2021/11/28 01:58:14;;;;;;;10.35;4.18;;;;;;;0.26;100.00;96746.84;5031916;28;20029;-73
2021/11/28 02:00:44;;;;;;;7.80;4.18;;;;;;;0.38;100.00;96791.38;5031551;28;20037;-73
2021/11/28 02:03:11;;;;;;;7.93;4.22;;;;;;;0.12;100.00;96753.88;5032067;28;20025;-73
2021/11/28 02:05:41;;;;;;;8.25;4.22;;;;;;;0.33;100.00;96779.69;5020481;28;20034;-72
2021/11/28 02:08:06;;;;;;;9.00;4.78;;;;;;;0.29;100.00;96775.72;5016278;28;20036;-72
2021/11/28 02:10:32;;;;;;;7.10;4.47;;;;;;;0.30;100.00;96778.22;5031229;28;20809;-73
2021/11/28 02:12:58;;;;;;;8.13;4.30;;;;;;;0.21;100.00;96768.72;5031709;28;20033;-73
2021/11/28 02:15:24;;;;;;;8.50;4.70;;;;;;;0.20;100.00;96765.22;5028468;28;20029;-73
2021/11/28 02:17:51;;;;;;;7.78;4.50;;;;;;;0.32;100.00;96780.69;5046811;28;20060;-72
2021/11/28 02:20:19;;;;;;;8.43;4.53;;;;;;;0.28;100.00;96790.88;5031124;28;20481;-73
2021/11/28 02:22:45;;;;;;;9.93;5.40;;;;;;;0.30;100.00;96778.22;5030300;28;20479;-72
2021/11/28 02:25:11;;;;;;;10.27;5.22;;;;;;;0.36;100.00;96776.63;5031331;28;20028;-72
2021/11/28 02:27:37;;;;;;;9.02;4.72;;;;;;;0.34;100.00;96773.31;5011580;28;20092;-73
2021/11/28 02:30:05;;;;;;;9.93;5.15;;;;;;;0.01;100.00;96733.94;5025009;28;20025;-73
2021/11/28 02:32:30;;;;;;;8.35;4.80;;;;;;;0.29;100.00;96776.56;5030844;28;20017;-72
2021/11/28 02:34:55;;;;;;;8.43;4.60;;;;;;;0.11;100.00;96752.25;5031152;28;20022;-72
2021/11/28 02:37:22;;;;;;;8.15;4.82;;;;;;;0.05;100.00;96745.81;5023715;28;20033;-73
2021/11/28 02:39:48;;;;;;;8.95;4.32;;;;;;;0.09;100.00;96754.25;5014653;28;20025;-75
2021/11/28 02:42:18;;;;;;;9.18;4.60;;;;;;;0.22;100.00;96771.19;5030758;28;20472;-72
2021/11/28 02:44:44;;;;;;;9.52;4.63;;;;;;;0.25;100.00;96769.16;5029257;28;20040;-74
2021/11/28 02:47:10;;;;;;;8.68;4.32;;;;;;;0.17;100.00;96749.63;5011394;28;20026;-72
2021/11/28 02:49:35;;;;;;;9.38;4.80;;;;;;;0.15;100.00;96743.69;5011694;28;20025;-73
2021/11/28 02:52:00;;;;;;;7.53;4.43;;;;;;;0.30;100.00;96772.91;5012219;28;20432;-73
2021/11/28 02:54:26;;;;;;;10.00;4.63;;;;;;;0.14;100.00;96747.38;5019930;28;20383;-73
2021/11/28 02:56:51;;;;;;;8.68;4.65;;;;;;;0.31;100.00;96768.41;5030913;28;20053;-72
2021/11/28 02:59:17;;;;;;;8.85;5.25;;;;;;;0.16;100.00;96748.00;5020666;28;20083;-74
2021/11/28 03:01:42;;;;;;;10.20;4.85;;;;;;;0.02;100.00;96738.22;5010760;28;20017;-75
2021/11/28 03:04:08;;;;;;;8.98;4.45;;;;;;;0.03;100.00;96744.34;5011011;28;20795;-73
2021/11/28 03:06:33;;;;;;;10.93;5.10;;;;;;;0.22;100.00;96773.84;5016540;28;20033;-73
2021/11/28 03:08:58;;;;;;;8.65;4.88;;;;;;;0.22;100.00;96771.19;5010896;28;20091;-73
2021/11/28 03:11:24;;;;;;;8.00;4.38;;;;;;;0.08;100.00;96745.47;5010733;28;20029;-72
2021/11/28 03:13:52;;;;;;;7.78;4.82;;;;;;;-0.06;100.00;96725.06;5015395;28;20043;-73
2021/11/28 03:16:21;;;;;;;7.55;4.53;;;;;;;0.31;100.00;96776.38;5027969;28;20040;-73
2021/11/28 03:18:48;;;;;;;9.70;5.03;;;;;;;0.40;100.00;96775.25;5030744;28;20395;-76
2021/11/28 03:21:17;;;;;;;7.90;4.22;;;;;;;0.34;100.00;96763.53;5030356;28;20127;-73
2021/11/28 03:23:45;;;;;;;10.60;4.20;;;;;;;0.28;100.00;96742.19;5030577;28;20021;-73
2021/11/28 03:26:18;;;;;;;10.10;4.20;;;;;;;0.22;100.00;96735.78;5028837;28;20028;-72
2021/11/28 03:28:48;;;;;;;7.57;4.53;;;;;;;0.40;100.00;96768.09;5014087;28;20108;-73
2021/11/28 03:31:13;;;;;;;7.15;4.03;;;;;;;0.22;100.00;96731.28;5023348;28;20036;-74
2021/11/28 03:33:40;;;;;;;6.53;3.80;;;;;;;0.41;100.00;96767.06;5030307;28;20025;-73
2021/11/28 03:36:07;;;;;;;7.70;3.65;;;;;;;0.37;100.00;96752.50;5029804;28;20483;-73
2021/11/28 03:38:35;;;;;;;8.07;3.97;;;;;;;0.57;100.00;96758.00;5029831;28;20056;-73
2021/11/28 03:41:00;;;;;;;8.05;4.55;;;;;;;0.36;100.00;96745.53;5028745;28;20025;-73
2021/11/28 03:43:26;;;;;;;8.75;4.28;;;;;;;0.42;100.00;96759.94;5029595;28;20029;-74
2021/11/28 03:45:51;;;;;;;7.18;4.18;;;;;;;0.35;100.00;96743.91;5029748;28;20518;-73
2021/11/28 03:48:17;;;;;;;7.57;4.63;;;;;;;0.13;100.00;96715.63;5028576;28;20021;-73
2021/11/28 03:50:42;;;;;;;8.93;4.78;;;;;;;0.25;100.00;96726.59;5029617;28;20055;-73
2021/11/28 03:53:08;;;;;;;9.02;4.68;;;;;;;0.51;100.00;96753.47;5030593;28;20105;-73
2021/11/28 03:55:34;;;;;;;9.40;5.05;;;;;;;0.36;100.00;96739.41;5033910;28;20112;-73
2021/11/28 03:57:59;;;;;;;10.57;6.15;;;;;;;0.20;100.00;96713.88;5034085;28;20105;-73
2021/11/28 04:00:25;;;;;;;11.15;5.82;;;;;;;0.48;100.00;96753.84;5021043;28;20672;-72
2021/11/28 04:02:50;;;;;;;10.05;5.72;;;;;;;0.46;100.00;96749.72;5014149;28;20506;-73
2021/11/28 04:05:16;;;;;;;11.27;6.15;;;;;;;0.24;100.00;96711.66;5019415;28;20021;-73
2021/11/28 04:07:41;;;;;;;10.20;5.93;;;;;;;0.23;100.00;96718.81;5032570;28;20029;-73
2021/11/28 04:10:08;;;;;;;10.48;5.75;;;;;;;0.35;100.00;96740.41;5033669;28;20025;-73
2021/11/28 04:12:33;;;;;;;9.98;5.95;;;;;;;0.35;100.00;96745.75;5033405;28;20029;-73
2021/11/28 04:14:59;;;;;;;16.30;6.85;;;;;;;0.54;100.00;96745.09;5033510;28;20025;-73
2021/11/28 04:17:26;;;;;;;20.88;8.15;;;;;;;0.56;100.00;96734.28;5033019;28;20029;-73
2021/11/28 04:19:52;;;;;;;10.75;5.60;;;;;;;0.37;100.00;96730.41;5033236;28;20029;-73
2021/11/28 04:22:18;;;;;;;15.10;5.20;;;;;;;0.30;100.00;96729.53;5031964;28;20479;-72
2021/11/28 04:24:44;;;;;;;11.70;5.20;;;;;;;0.37;100.00;96751.69;5033022;28;20037;-72
2021/11/28 04:27:09;;;;;;;8.52;4.45;;;;;;;0.53;100.00;96748.78;5031758;28;20048;-73
2021/11/28 04:29:34;;;;;;;9.30;5.10;;;;;;;0.33;100.00;96739.78;5032968;28;20056;-74
2021/11/28 04:32:00;;;;;;;9.65;5.25;;;;;;;0.14;100.00;96706.66;5030051;28;20037;-73
2021/11/28 04:34:25;;;;;;;7.28;4.03;;;;;;;0.21;100.00;96726.19;5016514;28;20395;-73
2021/11/28 04:36:50;;;;;;;9.02;3.67;;;;;;;0.19;100.00;96714.91;5030636;28;20037;-73
2021/11/28 04:39:16;;;;;;;4.90;3.25;;;;;;;0.37;100.00;96741.88;5030231;28;20443;-73
2021/11/28 04:41:41;;;;;;;5.85;3.78;;;;;;;0.40;100.00;96735.34;5032791;28;20064;-73
2021/11/28 04:44:06;;;;;;;8.98;4.78;;;;;;;0.33;100.00;96726.47;5032672;28;20021;-73
2021/11/28 04:46:32;;;;;;;6.57;3.75;;;;;;;0.38;100.00;96726.72;5029960;28;20036;-73
2021/11/28 04:48:57;;;;;;;6.88;4.13;;;;;;;0.50;100.00;96746.50;5032890;28;20045;-74
2021/11/28 04:51:22;;;;;;;6.72;3.97;;;;;;;0.39;100.00;96731.03;5032624;28;22112;-73
2021/11/28 04:53:48;;;;;;;9.10;3.78;;;;;;;0.47;100.00;96746.84;5032767;28;20027;-73
2021/11/28 04:56:13;;;;;;;8.70;4.85;;;;;;;0.17;100.00;96715.06;5031242;28;20033;-73
2021/11/28 04:58:38;;;;;;;9.40;4.70;;;;;;;0.18;100.00;96716.75;5032841;28;20657;-73
2021/11/28 05:01:04;;;;;;;8.75;4.30;;;;;;;0.25;100.00;96737.25;5031392;28;20075;-73
2021/11/28 05:03:29;;;;;;;9.60;4.60;;;;;;;0.33;100.00;96743.25;5032534;28;20026;-73
2021/11/28 05:05:54;;;;;;;8.18;4.28;;;;;;;0.36;100.00;96750.84;5031014;28;20021;-72
2021/11/28 05:08:19;;;;;;;6.18;3.63;;;;;;;0.34;100.00;96754.72;5032306;28;20079;-75
2021/11/28 05:10:45;;;;;;;8.38;4.22;;;;;;;0.29;100.00;96738.50;5030903;28;20030;-72
2021/11/28 05:13:10;;;;;;;6.43;3.55;;;;;;;0.31;100.00;96749.78;5030972;28;20033;-73
2021/11/28 05:15:35;;;;;;;7.78;4.47;;;;;;;0.34;100.00;96749.41;5032341;28;20025;-73
2021/11/28 05:18:01;;;;;;;7.65;4.25;;;;;;;0.29;100.00;96739.34;5032306;28;20036;-73
2021/11/28 05:20:26;;;;;;;8.77;4.18;;;;;;;0.00;100.00;96695.06;5030782;28;20809;-73
2021/11/28 05:22:51;;;;;;;8.57;4.00;;;;;;;0.13;100.00;96713.81;5031698;28;20033;-72
2021/11/28 05:25:17;;;;;;;8.38;3.78;;;;;;;0.25;100.00;96724.75;5032169;28;20021;-73
2021/11/28 05:27:46;;;;;;;7.38;3.85;;;;;;;0.39;100.00;96752.31;5022015;28;20028;-74
2021/11/28 05:30:11;;;;;;;8.85;3.65;;;;;;;0.11;100.00;96712.38;5029692;28;20029;-72
2021/11/28 05:32:37;;;;;;;6.38;2.97;;;;;;;0.43;100.00;96750.94;5026815;28;20025;-73
2021/11/28 05:35:03;;;;;;;7.90;3.65;;;;;;;0.36;100.00;96729.56;5031416;28;20033;-74
2021/11/28 05:37:28;;;;;;;7.47;3.55;;;;;;;0.40;100.00;96738.00;5031807;28;20748;-73
2021/11/28 05:39:54;;;;;;;8.00;3.67;;;;;;;0.43;100.00;96745.59;5031556;28;20037;-73
2021/11/28 05:42:19;;;;;;;8.38;4.80;;;;;;;0.24;100.00;96716.97;5031894;28;20390;-73
2021/11/28 05:44:44;;;;;;;9.55;4.60;;;;;;;0.34;100.00;96746.72;5031876;28;20025;-74
2021/11/28 05:47:10;;;;;;;6.63;3.95;;;;;;;0.38;100.00;96756.81;5030329;28;20106;-73
2021/11/28 05:49:35;;;;;;;7.15;4.55;;;;;;;0.36;100.00;96758.00;5031179;28;20021;-73
2021/11/28 05:52:01;;;;;;;9.25;4.00;;;;;;;0.32;100.00;96746.94;5031421;28;20445;-73
2021/11/28 05:54:26;;;;;;;5.82;3.85;;;;;;;0.32;100.00;96754.09;5031605;28;20048;-73
2021/11/28 05:56:52;;;;;;;8.05;4.10;;;;;;;0.32;100.00;96754.09;5030865;28;20025;-73
2021/11/28 05:59:17;;;;;;;7.78;3.83;;;;;;;0.31;100.00;96765.72;5030280;28;20054;-72
2021/11/28 06:01:43;;;;;;;6.45;3.92;;;;;;;0.01;100.00;96715.31;5030766;28;20033;-73
2021/11/28 06:04:08;;;;;;;7.30;3.60;;;;;;;0.08;100.00;96720.69;5031419;28;20040;-72
2021/11/28 06:06:33;;;;;;;6.05;3.45;;;;;;;0.24;100.00;96735.59;5029845;28;20474;-74
2021/11/28 06:08:59;;;;;;;6.32;3.10;;;;;;;0.31;100.00;96752.44;5027273;28;20403;-74
2021/11/28 06:11:24;;;;;;;7.95;3.38;;;;;;;0.19;100.00;96741.50;5028405;28;20025;-75
2021/11/28 06:13:50;;;;;;;6.80;3.33;;;;;;;0.36;100.00;96755.34;5028739;28;20034;-72
2021/11/28 06:16:16;;;;;;;8.57;3.70;;;;;;;0.26;100.00;96745.00;5027805;28;21374;-73
2021/11/28 06:18:41;;;;;;;11.73;6.47;;;;;;;0.26;100.00;96765.47;5030624;28;20037;-73
2021/11/28 06:21:08;;;;;;;7.70;4.18;;;;;;;0.23;100.00;96761.34;5030039;28;20029;-76
2021/11/28 06:23:33;;;;;;;11.98;5.85;;;;;;;0.17;100.00;96751.47;5030807;28;20025;-77
2021/11/28 06:25:59;;;;;;;22.98;8.55;;;;;;;0.08;100.00;96737.50;5028980;28;20029;-76
2021/11/28 06:28:24;;;;;;;14.80;6.57;;;;;;;0.31;100.00;96784.34;5025960;28;20063;-76
2021/11/28 06:30:49;;;;;;;9.23;4.75;;;;;;;0.14;100.00;96758.00;5024855;28;20033;-76
2021/11/28 06:33:16;;;;;;;8.07;4.10;;;;;;;0.14;100.00;96767.81;5030880;28;20029;-81
2021/11/28 06:35:41;;;;;;;10.57;4.40;;;;;;;0.03;100.00;96755.00;5028427;28;20463;-75
2021/11/28 06:38:07;;;;;;;10.63;4.85;;;;;;;0.03;100.00;96741.69;5030412;28;20032;-76
2021/11/28 06:40:32;;;;;;;7.25;4.30;;;;;;;0.15;100.00;96751.66;5024296;28;20051;-74
2021/11/28 06:42:57;;;;;;;9.55;4.82;;;;;;;0.25;100.00;96766.50;5026504;28;20021;-74
2021/11/28 06:45:23;;;;;;;8.95;4.97;;;;;;;0.32;100.00;96780.69;5028840;28;20463;-75
2021/11/28 06:47:48;;;;;;;8.68;4.43;;;;;;;0.47;100.00;96754.84;5020670;28;20577;-74
2021/11/28 06:50:14;;;;;;;8.95;5.00;;;;;;;0.51;100.00;96761.44;5023915;28;20083;-75
2021/11/28 06:52:39;;;;;;;8.27;4.15;;;;;;;0.70;100.00;96786.59;5025037;28;21800;-76
2021/11/28 06:55:05;;;;;;;9.73;4.30;;;;;;;0.26;100.00;96717.59;5029324;28;20487;-74
2021/11/28 06:57:30;;;;;;;8.15;3.70;;;;;;;0.48;100.00;96743.19;5030056;28;20037;-77
2021/11/28 06:59:56;;;;;;;9.15;4.00;;;;;;;0.49;100.00;96771.44;5028294;28;20061;-72
2021/11/28 07:02:21;;;;;;;8.30;4.28;;;;;;;0.39;100.00;96771.78;5030695;28;20037;-73
2021/11/28 07:04:47;;;;;;;9.80;3.92;;;;;;;0.48;100.00;96784.94;5024824;28;20080;-74
2021/11/28 07:07:12;;;;;;;5.45;3.10;;;;;;;0.42;100.00;96781.22;5020217;28;20032;-72
2021/11/28 07:09:38;;;;;;;8.38;3.47;;;;;;;0.40;100.00;96783.22;5025946;28;20493;-74
2021/11/28 07:12:04;;;;;;;4.78;2.83;;;;;;;0.40;100.00;96783.22;5025908;28;20036;-78
2021/11/28 07:14:29;;;;;;;9.30;3.58;;;;;;;0.36;100.00;96788.09;5038968;28;20108;-76
2021/11/28 07:16:55;;;;;;;8.80;4.32;;;;;;;0.55;100.00;96789.31;5017002;28;20125;-75
2021/11/28 07:19:20;;;;;;;7.53;4.10;;;;;;;0.45;100.00;96794.13;5026436;28;20030;-74
2021/11/28 07:21:45;;;;;;;5.60;3.15;;;;;;;0.19;100.00;96763.56;5029640;28;20029;-76
2021/11/28 07:24:11;;;;;;;6.88;3.78;;;;;;;0.48;100.00;96804.41;5030441;28;20032;-74
2021/11/28 07:26:36;;;;;;;8.55;3.60;;;;;;;0.48;100.00;96801.72;5029545;28;20036;-75
2021/11/28 07:29:01;;;;;;;6.05;3.60;;;;;;;0.54;100.00;96800.16;5018959;28;20109;-75
2021/11/28 07:31:27;;;;;;;10.30;4.97;;;;;;;0.36;100.00;96763.34;5033288;28;20033;-76
2021/11/28 07:33:52;;;;;;;13.48;5.43;;;;;;;0.34;100.00;96763.53;5030453;28;20035;-74
2021/11/28 07:36:17;;;;;;;8.65;4.75;;;;;;;0.47;100.00;96788.59;5032288;28;20033;-74
2021/11/28 07:38:44;;;;;;;6.90;4.47;;;;;;;0.29;100.00;96767.75;5033340;28;20108;-70
2021/11/28 07:41:10;;;;;;;8.40;4.53;;;;;;;0.59;100.00;96803.88;5025591;28;20079;-70
2021/11/28 07:43:36;;;;;;;7.15;4.38;;;;;;;0.59;100.00;96817.19;5031489;28;20117;-70
2021/11/28 07:46:01;;;;;;;6.80;4.15;;;;;;;0.55;100.00;96807.94;5030842;28;20120;-70
2021/11/28 07:48:27;;;;;;;8.88;4.28;;;;;;;0.49;100.00;96786.59;5032602;28;20415;-69
2021/11/28 07:50:52;;;;;;;7.78;4.45;;;;;;;0.46;100.00;96792.28;5023684;28;20034;-69
2021/11/28 07:53:18;;;;;;;9.77;4.57;;;;;;;0.68;100.00;96817.88;5025140;28;20112;-79
2021/11/28 07:55:43;;;;;;;8.65;5.05;;;;;;;0.74;100.00;96814.47;5025755;28;20033;-74
2021/11/28 07:58:09;;;;;;;8.85;4.38;;;;;;;0.76;100.00;96822.25;5029408;28;20045;-74
2021/11/28 08:00:35;;;;;;;8.00;3.90;;;;;;;0.55;100.00;96778.69;5029265;28;20090;-73
2021/11/28 08:03:01;;;;;;;12.25;4.60;;;;;;;0.61;100.00;96791.22;5033447;28;20143;-79
2021/11/28 08:05:27;;;;;;;7.57;4.80;;;;;;;0.90;100.00;96815.25;5031898;28;20029;-74
2021/11/28 08:07:53;;;;;;;8.85;4.38;;;;;;;0.98;100.00;96813.25;5026700;28;20033;-80
2021/11/28 08:10:18;;;;;;;8.00;4.53;;;;;;;0.91;100.00;96793.72;5033789;28;20459;-72
2021/11/28 08:12:43;;;;;;;7.30;4.70;;;;;;;0.83;100.00;96783.22;5029392;28;20152;-76
2021/11/28 08:15:15;;;;;;;6.25;3.70;;;;;;;0.91;100.00;96795.56;5025652;28;20514;-72
2021/11/28 08:17:41;;;;;;;6.07;4.00;;;;;;;0.97;100.00;96806.28;5025217;28;20029;-73
2021/11/28 08:20:08;;;;;;;7.43;3.58;;;;;;;1.00;100.00;96800.56;5021194;28;20036;-72
2021/11/28 08:22:34;;;;;;;6.47;3.72;;;;;;;1.14;100.00;96820.16;5031030;28;20056;-75
2021/11/28 08:24:59;;;;;;;5.45;3.25;;;;;;;0.99;100.00;96798.91;5030341;28;20511;-75
2021/11/28 08:27:25;;;;;;;5.82;3.22;;;;;;;0.99;100.00;96796.25;5029456;28;20449;-73
2021/11/28 08:29:51;;;;;;;4.60;2.88;;;;;;;1.16;100.00;96814.63;5031824;28;20100;-72
2021/11/28 08:32:17;;;;;;;7.40;3.35;;;;;;;1.20;100.00;96805.22;5024250;28;20098;-71
2021/11/28 08:34:43;;;;;;;8.73;3.70;;;;;;;1.30;100.00;96825.19;5029519;28;20037;-73
2021/11/28 08:37:09;;;;;;;9.02;3.78;;;;;;;1.19;100.00;96791.09;5032608;28;20036;-72
2021/11/28 08:39:34;;;;;;;9.13;3.75;;;;;;;1.39;100.00;96830.34;5030856;28;20041;-73
2021/11/28 08:42:00;;;;;;;6.95;3.83;;;;;;;1.32;100.00;96814.34;5026779;28;20040;-73
2021/11/28 08:44:26;;;;;;;9.00;3.38;;;;;;;1.52;100.00;96830.47;5032101;28;20087;-78
2021/11/28 08:46:51;;;;;;;5.95;3.00;;;;;;;1.53;100.00;96840.13;5033027;28;20094;-76
2021/11/28 08:49:17;;;;;;;7.22;3.65;;;;;;;1.47;100.00;96846.22;5024216;28;20033;-74
2021/11/28 08:51:43;;;;;;;6.68;3.22;;;;;;;1.38;100.00;96844.72;5032538;28;20033;-73
2021/11/28 08:54:13;;;;;;;7.60;2.80;;;;;;;1.36;100.00;96842.22;5033692;28;20025;-75
2021/11/28 08:56:39;;;;;;;5.38;3.05;;;;;;;1.12;100.00;96802.72;5033314;28;20029;-72
2021/11/28 08:59:05;;;;;;;6.53;3.50;;;;;;;1.31;100.00;96831.34;5033060;28;20471;-71
2021/11/28 09:01:30;;;;;;;5.28;3.10;;;;;;;1.32;100.00;96840.97;5033069;28;20041;-75
2021/11/28 09:03:55;;;;;;;5.13;2.88;;;;;;;1.36;100.00;96847.56;5032099;28;20037;-74
2021/11/28 09:06:21;;;;;;;6.18;3.40;;;;;;;1.22;100.00;96835.16;5030366;28;20282;-73
2021/11/28 09:08:48;;;;;;;6.03;3.38;;;;;;;1.09;100.00;96823.38;5030985;28;20037;-75
2021/11/28 09:11:15;;;;;;;4.80;3.08;;;;;;;1.38;100.00;96860.69;5031385;28;20064;-72
2021/11/28 09:13:40;;;;;;;6.13;3.42;;;;;;;1.28;100.00;96840.56;5032394;28;20029;-72
2021/11/28 09:16:10;;;;;;;5.43;3.28;;;;;;;1.28;100.00;96847.69;5031199;28;20028;-74
2021/11/28 09:18:41;;;;;;;6.65;3.50;;;;;;;1.46;100.00;96871.22;5031453;28;20120;-74
2021/11/28 09:21:07;;;;;;;5.75;3.38;;;;;;;1.49;100.00;96879.66;5025483;28;20029;-73
2021/11/28 09:26:16;;;;;;;5.78;3.22;;;;;;;1.45;100.00;96840.25;5032278;28;20138;-75
2021/11/28 09:28:42;;;;;;;6.57;3.60;;;;;;;1.55;100.00;96856.75;5029311;28;20467;-74
2021/11/28 09:31:10;;;;;;;5.75;2.85;;;;;;;1.81;100.00;96861.41;5029953;28;20051;-74
2021/11/28 09:33:39;;;;;;;6.53;3.75;;;;;;;1.74;100.00;96823.22;5028521;28;20084;-75
2021/11/28 09:36:06;;;;;;;5.70;3.20;;;;;;;2.15;100.00;96870.44;5027049;28;20026;-73
2021/11/28 09:38:31;;;;;;;5.45;2.90;;;;;;;2.06;99.71;96835.06;5029483;28;20033;-73
2021/11/28 09:41:02;;;;;;;7.35;3.60;;;;;;;2.29;98.66;96869.47;5031996;28;20560;-74
2021/11/28 09:43:29;;;;;;;7.20;3.67;;;;;;;1.97;96.58;96830.94;5032189;28;20041;-74
2021/11/28 09:45:55;;;;;;;7.68;3.45;;;;;;;2.26;97.32;96877.88;5030432;28;20028;-74
2021/11/28 09:48:23;;;;;;;11.52;7.00;;;;;;;2.47;95.21;96870.78;5032055;28;20029;-72
2021/11/28 09:50:50;;;;;;;12.73;7.05;;;;;;;2.33;95.66;96848.53;5017129;28;20025;-76
2021/11/28 09:53:17;;;;;;;15.18;5.88;;;;;;;2.39;95.30;96827.22;5029473;28;20577;-71
2021/11/28 09:55:43;;;;;;;10.60;6.15;;;;;;;2.49;93.17;96844.69;5031530;28;20105;-71
2021/11/28 09:58:09;;;;;;;9.82;5.63;;;;;;;2.43;93.52;96838.31;5030605;28;20485;-74
2021/11/28 10:00:35;;;;;;;12.38;5.65;;;;;;;2.69;94.21;96858.91;5031042;28;20037;-71
2021/11/28 10:03:02;;;;;;;8.43;4.93;;;;;;;2.66;96.29;96843.31;5031488;28;20060;-75
2021/11/28 10:05:27;;;;;;;6.43;3.90;;;;;;;2.68;96.53;96851.13;5031500;28;20025;-75
2021/11/28 10:07:52;;;;;;;6.65;3.70;;;;;;;2.54;96.64;96831.56;5029066;28;20032;-73
2021/11/28 10:10:19;;;;;;;6.25;3.15;;;;;;;2.76;96.31;96853.63;5026626;28;20025;-72
2021/11/28 10:12:51;;;;;;;7.05;3.53;;;;;;;2.78;96.21;96846.22;5025285;28;20025;-73
2021/11/28 10:15:20;;;;;;;5.18;3.22;;;;;;;2.82;95.93;96842.94;5012577;28;20028;-74
2021/11/28 10:17:46;;;;;;;8.77;3.33;;;;;;;2.88;95.83;96840.47;5025084;28;20079;-74
2021/11/28 10:20:22;;;;;;;7.07;3.50;;;;;;;2.90;95.27;96841.09;5031031;28;20775;-75
2021/11/28 10:22:49;;;;;;;8.98;4.07;;;;;;;2.93;94.62;96830.00;5029939;28;20021;-73
2021/11/28 10:25:27;;;;;;;9.38;4.55;;;;;;;3.02;94.76;96836.81;5028784;28;20033;-71
2021/11/28 10:28:10;;;;;;;7.47;4.17;;;;;;;3.06;93.09;96832.69;5030630;28;20037;-71
2021/11/28 10:30:38;;;;;;;6.95;4.10;;;;;;;3.11;92.61;96827.56;5029203;28;20264;-70
2021/11/28 10:33:21;;;;;;;10.43;4.72;;;;;;;3.04;92.28;96811.53;5026967;28;20029;-71
2021/11/28 10:36:10;;;;;;;10.82;5.22;;;;;;;3.23;92.10;96830.44;5021829;28;20490;-73
2021/11/28 10:38:40;;;;;;;11.02;5.20;;;;;;;3.22;91.41;96816.28;5009563;28;20116;-70
2021/11/28 10:41:22;;;;;;;14.80;5.72;;;;;;;3.22;92.53;96824.28;5018851;28;20025;-71
2021/11/28 10:43:48;;;;;;;13.75;5.65;;;;;;;3.21;91.90;96824.50;5026639;28;20028;-71
2021/11/28 10:46:28;;;;;;;13.30;5.35;;;;;;;3.20;91.92;96821.00;5022523;28;20140;-71
2021/11/28 10:49:12;;;;;;;12.30;5.82;;;;;;;3.33;93.38;96820.19;5029358;28;20471;-70
2021/11/28 10:51:40;;;;;;;8.27;5.40;;;;;;;3.50;90.99;96823.25;5028365;28;20075;-71
2021/11/28 10:54:31;;;;;;;10.75;5.18;;;;;;;3.41;90.48;96824.50;5028650;28;20550;-71
2021/11/28 10:57:08;;;;;;;10.82;5.32;;;;;;;3.54;90.95;96823.63;5027318;28;20036;-71
2021/11/28 10:59:39;;;;;;;8.80;5.32;;;;;;;3.53;90.53;96822.81;5023267;28;20030;-71
2021/11/28 11:02:32;;;;;;;12.32;5.85;;;;;;;3.61;90.94;96825.28;5028934;28;20033;-71
2021/11/28 11:05:00;;;;;;;10.05;6.05;;;;;;;3.59;88.93;96816.66;5036033;28;20030;-70
2021/11/28 11:07:26;;;;;;;12.60;6.05;;;;;;;3.46;87.12;96825.50;5030598;28;20041;-71
2021/11/28 11:09:55;;;;;;;11.00;5.28;;;;;;;3.59;89.04;96818.50;5024565;28;20282;-71
2021/11/28 11:12:33;;;;;;;9.55;5.45;;;;;;;3.59;89.10;96824.69;5033604;28;20549;-73
2021/11/28 11:14:59;;;;;;;10.95;4.63;;;;;;;3.60;90.39;96822.81;5020210;28;20041;-71
2021/11/28 11:17:27;;;;;;;9.45;4.95;;;;;;;3.45;90.21;96817.69;5028936;28;20021;-71
2021/11/28 11:19:54;;;;;;;10.35;5.60;;;;;;;3.14;89.93;96791.59;5033067;28;20026;-70
2021/11/28 11:22:31;;;;;;;10.77;6.35;;;;;;;3.29;88.66;96822.41;5035668;28;20026;-71
2021/11/28 11:25:07;;;;;;;11.77;6.10;;;;;;;3.24;88.90;96821.41;5038937;28;20029;-70
2021/11/28 11:27:35;;;;;;;8.48;5.22;;;;;;;3.15;87.74;96819.97;5030805;28;20736;-70
2021/11/28 11:30:09;;;;;;;8.65;5.00;;;;;;;3.26;86.93;96820.16;5031651;28;20033;-71
2021/11/28 11:32:55;;;;;;;8.65;5.45;;;;;;;3.28;89.17;96823.47;5012720;28;20415;-71
2021/11/28 11:35:25;;;;;;;13.32;5.40;;;;;;;3.39;86.81;96829.22;5012908;28;20036;-71